AFL1825 UWWW-UUEE
Flight info
| Callsign | AFL1825 |
|---|---|
| Flight time | N/A |
| Altitude | 36000 |
| Route | REDMI7Z REDMI T173 BMK T750 OKSUD T787 OTKOL T784 LARNO T291 URIDU L158 DIMGI DIMGI3F |
| Aircraft | B738/M-SDE2E3FGHIRWXY/LB1 |
Departure
| Time | 2025-10-09 15:34 |
|---|---|
| Airport | Kurumoch International Airport (UWWW) |
Arrival
| Time | N/A |
|---|---|
| Airport | Sheremetyevo International Airport (UUEE) |
| Time | Latitude | Longitude | Altitude | Speed | Heading |
|---|---|---|---|---|---|
| 2025-10-09 15:11 | 53.51127 | 50.15753 | 446 ft | 0 kts | 332° |
| 2025-10-09 15:18 | 53.51106 | 50.15773 | 433 ft | 3 kts | 329° |
| 2025-10-09 15:19 | 53.51073 | 50.15811 | 435 ft | 3 kts | 314° |
| 2025-10-09 15:19 | 53.51061 | 50.15857 | 429 ft | 1 kts | 242° |
| 2025-10-09 15:26 | 53.50961 | 50.15552 | 445 ft | 18 kts | 241° |
| 2025-10-09 15:27 | 53.50818 | 50.15112 | 438 ft | 24 kts | 242° |
| 2025-10-09 15:27 | 53.50670 | 50.14638 | 446 ft | 22 kts | 242° |
| 2025-10-09 15:28 | 53.50525 | 50.14198 | 437 ft | 21 kts | 241° |
| 2025-10-09 15:28 | 53.50457 | 50.13986 | 439 ft | 20 kts | 241° |
| 2025-10-09 15:29 | 53.50330 | 50.13602 | 442 ft | 10 kts | 242° |
| 2025-10-09 15:29 | 53.50223 | 50.13488 | 435 ft | 10 kts | 183° |
| 2025-10-09 15:30 | 53.50035 | 50.13480 | 436 ft | 18 kts | 181° |
| 2025-10-09 15:30 | 53.49980 | 50.13479 | 447 ft | 5 kts | 180° |
| 2025-10-09 15:31 | 53.49876 | 50.13506 | 452 ft | 6 kts | 135° |
| 2025-10-09 15:31 | 53.49881 | 50.13623 | 450 ft | 0 kts | 62° |
| 2025-10-09 15:32 | 53.49944 | 50.13815 | 451 ft | 57 kts | 61° |
| 2025-10-09 15:32 | 53.50777 | 50.16474 | 824 ft | 169 kts | 64° |
| 2025-10-09 15:33 | 53.52700 | 50.22265 | 3113 ft | 215 kts | 63° |
| 2025-10-09 15:33 | 53.53463 | 50.24491 | 3622 ft | 226 kts | 62° |
| 2025-10-09 15:34 | 53.54344 | 50.28679 | 4595 ft | 235 kts | 101° |
| 2025-10-09 15:34 | 53.51233 | 50.34773 | 6360 ft | 265 kts | 158° |
| 2025-10-09 15:35 | 53.45951 | 50.38312 | 8618 ft | 280 kts | 182° |
| 2025-10-09 15:35 | 53.44069 | 50.37587 | 9428 ft | 281 kts | 208° |
| 2025-10-09 15:36 | 53.41510 | 50.32639 | 10724 ft | 298 kts | 241° |
| 2025-10-09 15:36 | 53.39431 | 50.26039 | 11072 ft | 345 kts | 242° |
| 2025-10-09 15:37 | 53.37145 | 50.18477 | 11726 ft | 376 kts | 253° |
| 2025-10-09 15:37 | 53.37470 | 50.09864 | 13137 ft | 383 kts | 294° |
| 2025-10-09 15:38 | 53.41213 | 50.03610 | 14354 ft | 393 kts | 336° |
| 2025-10-09 15:39 | 53.49432 | 50.02128 | 16126 ft | 405 kts | 357° |
| 2025-10-09 15:39 | 53.55093 | 50.01838 | 17223 ft | 413 kts | 356° |
| 2025-10-09 15:39 | 53.57975 | 50.01652 | 17751 ft | 416 kts | 356° |
| 2025-10-09 15:40 | 53.63827 | 50.01228 | 18771 ft | 424 kts | 355° |
| 2025-10-09 15:40 | 53.69763 | 50.00786 | 19724 ft | 430 kts | 355° |
| 2025-10-09 15:41 | 53.71839 | 50.00515 | 20044 ft | 430 kts | 348° |
| 2025-10-09 15:41 | 53.76489 | 49.96657 | 20885 ft | 423 kts | 315° |
| 2025-10-09 15:42 | 53.77680 | 49.94529 | 21194 ft | 421 kts | 306° |
| 2025-10-09 15:43 | 53.80982 | 49.80954 | 22533 ft | 422 kts | 285° |
| 2025-10-09 15:43 | 53.82694 | 49.71385 | 23372 ft | 427 kts | 285° |
| 2025-10-09 15:43 | 53.83569 | 49.66576 | 23810 ft | 428 kts | 285° |
| 2025-10-09 15:44 | 53.84458 | 49.61742 | 24152 ft | 430 kts | 285° |
| 2025-10-09 15:44 | 53.87165 | 49.47120 | 25114 ft | 437 kts | 286° |
| 2025-10-09 15:46 | 53.94539 | 49.07064 | 27398 ft | 453 kts | 290° |
| 2025-10-09 15:48 | 54.08076 | 48.71258 | 30577 ft | 444 kts | 301° |
| 2025-10-09 15:50 | 54.21261 | 48.36106 | 33066 ft | 437 kts | 300° |
| 2025-10-09 15:52 | 54.33875 | 48.00884 | 35110 ft | 433 kts | 298° |